createdAt,value
2019-05-30T00:00:17.654Z,2.17
2019-05-30T00:02:42.242Z,2.43
2019-05-30T00:05:10.846Z,2.30
2019-05-30T00:07:39.290Z,1.80
2019-05-30T00:10:07.831Z,2.00
2019-05-30T00:12:36.307Z,2.07
2019-05-30T00:15:07.844Z,2.10
2019-05-30T00:17:36.384Z,2.40
2019-05-30T00:20:06.497Z,2.30
2019-05-30T00:22:34.983Z,2.20
2019-05-30T00:25:06.271Z,3.17
2019-05-30T00:27:34.927Z,2.70
2019-05-30T00:30:03.986Z,2.33
2019-05-30T00:32:32.513Z,2.43
2019-05-30T00:35:02.063Z,2.20
2019-05-30T00:37:30.701Z,2.40
2019-05-30T00:39:59.890Z,2.17
2019-05-30T00:42:28.467Z,2.30
2019-05-30T00:44:57.868Z,2.60
2019-05-30T00:47:26.422Z,2.87
2019-05-30T00:49:56.129Z,3.10
2019-05-30T00:52:24.724Z,2.63
2019-05-30T00:54:53.176Z,2.73
2019-05-30T00:57:21.645Z,2.23
2019-05-30T00:59:50.099Z,2.70
2019-05-30T01:02:18.567Z,2.47
2019-05-30T01:04:46.999Z,2.60
2019-05-30T01:07:15.447Z,3.10
2019-05-30T01:09:43.916Z,3.20
2019-05-30T01:12:12.431Z,2.37
2019-05-30T01:14:40.874Z,2.67
2019-05-30T01:17:09.352Z,2.77
2019-05-30T01:19:37.873Z,2.63
2019-05-30T01:22:07.614Z,3.17
2019-05-30T01:24:36.342Z,2.40
2019-05-30T01:27:05.558Z,2.50
2019-05-30T01:29:34.246Z,2.77
2019-05-30T01:32:05.546Z,3.10
2019-05-30T01:34:34.126Z,2.60
2019-05-30T01:37:03.693Z,2.83
2019-05-30T01:39:32.392Z,2.73
2019-05-30T01:42:01.840Z,2.80
2019-05-30T01:44:30.450Z,2.87
2019-05-30T01:47:00.089Z,2.40
2019-05-30T01:49:28.721Z,2.67
2019-05-30T01:51:58.313Z,2.43
2019-05-30T01:54:26.885Z,2.20
2019-05-30T01:56:58.505Z,2.73
2019-05-30T01:59:27.033Z,2.30
2019-05-30T02:01:55.553Z,2.33
2019-05-30T02:04:23.998Z,2.97
2019-05-30T02:06:52.446Z,2.50
2019-05-30T02:09:20.888Z,2.70
2019-05-30T02:11:49.341Z,2.30
2019-05-30T02:14:17.855Z,2.60
2019-05-30T02:16:46.283Z,2.33
2019-05-30T02:19:14.808Z,2.43
2019-05-30T02:21:43.264Z,2.30
2019-05-30T02:24:12.282Z,2.77
2019-05-30T02:26:40.962Z,2.37
2019-05-30T02:29:10.452Z,1.93
2019-05-30T02:31:39.913Z,2.57
2019-05-30T02:34:10.125Z,2.37
2019-05-30T02:36:38.713Z,2.50
2019-05-30T02:39:09.974Z,2.70
2019-05-30T02:41:38.342Z,2.37
2019-05-30T02:44:07.714Z,2.10
2019-05-30T02:46:36.986Z,2.73
2019-05-30T02:49:07.244Z,2.50
2019-05-30T02:51:35.621Z,2.63
2019-05-30T02:54:06.499Z,2.37
2019-05-30T02:56:34.329Z,2.57
2019-05-30T02:59:03.932Z,2.37
2019-05-30T03:01:33.084Z,2.27
2019-05-30T03:04:02.308Z,2.30
2019-05-30T03:06:32.220Z,2.73
2019-05-30T03:09:01.880Z,2.50
2019-05-30T03:11:31.102Z,2.57
2019-05-30T03:13:59.618Z,2.20
2019-05-30T03:16:28.123Z,1.80
2019-05-30T03:18:56.657Z,2.37
2019-05-30T03:21:25.147Z,2.53
2019-05-30T03:23:53.820Z,2.20
2019-05-30T03:26:22.285Z,2.20
2019-05-30T03:28:53.545Z,1.63
2019-05-30T03:31:29.192Z,2.40
2019-05-30T03:33:53.919Z,1.83
2019-05-30T03:36:29.561Z,2.03
2019-05-30T03:38:52.611Z,1.90
2019-05-30T03:41:21.131Z,1.90
2019-05-30T03:43:49.580Z,2.00
2019-05-30T03:46:21.111Z,1.77
2019-05-30T03:48:52.610Z,1.70
2019-05-30T03:51:21.809Z,1.83
2019-05-30T03:53:50.468Z,2.17
2019-05-30T03:56:22.000Z,1.80
2019-05-30T03:58:56.340Z,1.70
2019-05-30T04:02:03.119Z,1.87
2019-05-30T04:04:46.701Z,1.67
2019-05-30T04:07:19.557Z,1.47
2019-05-30T04:09:51.376Z,1.70
2019-05-30T04:12:37.488Z,1.60
2019-05-30T04:15:23.853Z,1.60
2019-05-30T04:17:52.310Z,1.80
2019-05-30T04:20:23.061Z,1.50
2019-05-30T04:22:50.905Z,1.40
2019-05-30T04:25:19.364Z,1.63
2019-05-30T04:27:47.902Z,1.60
2019-05-30T04:30:18.069Z,1.20
2019-05-30T04:32:46.657Z,1.40
2019-05-30T04:35:16.868Z,1.43
2019-05-30T04:37:45.441Z,1.40
2019-05-30T04:40:15.484Z,1.60
2019-05-30T04:42:44.186Z,1.40
2019-05-30T04:45:13.661Z,1.90
2019-05-30T04:47:42.309Z,1.77
2019-05-30T04:50:12.210Z,1.67
2019-05-30T04:52:40.808Z,1.27
2019-05-30T04:55:10.724Z,1.57
2019-05-30T04:57:39.980Z,1.43
2019-05-30T05:00:10.647Z,1.80
2019-05-30T05:02:39.300Z,1.80
2019-05-30T05:05:08.452Z,1.73
2019-05-30T05:07:36.986Z,1.80
2019-05-30T05:10:09.594Z,2.03
2019-05-30T05:12:38.126Z,2.03
2019-05-30T05:15:07.050Z,1.97
2019-05-30T05:17:35.512Z,1.93
2019-05-30T05:20:06.594Z,2.00
2019-05-30T05:22:35.020Z,1.77
2019-05-30T05:25:04.624Z,1.90
2019-05-30T05:27:33.122Z,1.73
2019-05-30T05:30:01.587Z,2.00
2019-05-30T05:32:30.008Z,1.90
2019-05-30T05:34:58.466Z,2.00
2019-05-30T05:37:27.386Z,2.10
2019-05-30T05:39:55.942Z,1.90
2019-05-30T05:42:28.403Z,1.93
2019-05-30T05:44:54.693Z,1.90
2019-05-30T05:47:23.202Z,1.73
2019-05-30T05:49:51.663Z,2.00
2019-05-30T05:52:20.724Z,1.93
2019-05-30T05:54:49.380Z,1.63
2019-05-30T05:57:18.858Z,1.90
2019-05-30T05:59:47.435Z,2.00
2019-05-30T06:02:17.488Z,1.50
2019-05-30T06:04:46.244Z,1.50
2019-05-30T06:07:14.680Z,1.60
2019-05-30T06:09:43.140Z,2.00
2019-05-30T06:12:11.611Z,1.50
2019-05-30T06:14:40.088Z,2.00
2019-05-30T06:17:08.530Z,1.93
2019-05-30T06:19:45.757Z,1.47
2019-05-30T06:22:07.176Z,1.70
2019-05-30T06:24:35.693Z,1.63
2019-05-30T06:27:04.274Z,1.87
2019-05-30T06:29:32.726Z,1.30
2019-05-30T06:32:01.157Z,1.40
2019-05-30T06:34:38.824Z,1.63
2019-05-30T06:36:59.755Z,1.73
2019-05-30T06:39:29.548Z,1.70
2019-05-30T06:41:58.144Z,1.80
2019-05-30T06:44:26.601Z,1.63
2019-05-30T06:46:55.133Z,1.57
2019-05-30T06:49:24.732Z,1.80
2019-05-30T06:51:53.393Z,1.50
2019-05-30T06:54:23.945Z,1.40
2019-05-30T06:56:52.225Z,1.73
2019-05-30T06:59:21.427Z,1.50
2019-05-30T07:01:52.047Z,1.90
2019-05-30T07:04:20.650Z,1.53
2019-05-30T07:06:49.668Z,1.73
2019-05-30T07:09:18.408Z,2.13
2019-05-30T07:11:46.949Z,1.90
2019-05-30T07:14:15.564Z,1.70
2019-05-30T07:16:44.080Z,1.37
2019-05-30T07:19:12.542Z,1.50
2019-05-30T07:21:41.076Z,1.97
2019-05-30T07:24:09.553Z,1.90
2019-05-30T07:26:38.090Z,2.10
2019-05-30T07:29:06.528Z,1.87
2019-05-30T07:31:34.994Z,2.10
2019-05-30T07:34:03.576Z,2.03
2019-05-30T07:36:32.306Z,2.10
2019-05-30T07:39:00.849Z,1.50
2019-05-30T07:41:29.299Z,1.90
2019-05-30T07:43:57.809Z,2.00
2019-05-30T07:46:26.792Z,1.93
2019-05-30T07:48:55.385Z,1.90
2019-05-30T07:51:24.612Z,2.13
2019-05-30T07:53:53.187Z,2.00
2019-05-30T07:56:21.651Z,1.97
2019-05-30T07:58:50.434Z,1.93
2019-05-30T08:01:18.932Z,1.90
2019-05-30T08:03:47.466Z,1.90
2019-05-30T08:06:16.023Z,2.13
2019-05-30T08:08:44.468Z,1.60
2019-05-30T08:11:12.909Z,2.20
2019-05-30T08:13:41.360Z,2.20
2019-05-30T08:16:09.873Z,2.03
2019-05-30T08:18:38.317Z,1.97
2019-05-30T08:21:06.939Z,2.10
2019-05-30T08:23:36.298Z,1.67
2019-05-30T08:26:04.897Z,2.37
2019-05-30T08:28:34.324Z,1.97
2019-05-30T08:31:02.844Z,1.87
2019-05-30T08:33:31.464Z,2.10
2019-05-30T08:35:59.991Z,2.10
2019-05-30T08:38:29.007Z,1.87
2019-05-30T08:40:57.660Z,2.37
2019-05-30T08:43:26.143Z,1.90
2019-05-30T08:45:54.584Z,2.10
2019-05-30T08:48:23.091Z,1.80
2019-05-30T08:50:51.585Z,1.70
2019-05-30T08:53:20.059Z,2.10
2019-05-30T08:55:48.592Z,2.10
2019-05-30T08:58:17.096Z,1.90
2019-05-30T09:00:45.535Z,1.90
2019-05-30T09:03:14.058Z,2.20
2019-05-30T09:05:57.003Z,2.00
2019-05-30T09:08:12.770Z,2.00
2019-05-30T09:10:42.557Z,2.07
2019-05-30T09:13:11.363Z,2.30
2019-05-30T09:15:40.961Z,2.00
2019-05-30T09:18:09.652Z,2.00
2019-05-30T09:20:39.816Z,2.17
2019-05-30T09:23:08.333Z,2.30
2019-05-30T09:25:37.219Z,2.00
2019-05-30T09:28:07.046Z,2.10
2019-05-30T09:30:35.517Z,2.27
2019-05-30T09:33:04.105Z,2.47
2019-05-30T09:35:32.555Z,2.70
2019-05-30T09:38:01.012Z,2.23
2019-05-30T09:40:31.114Z,3.00
2019-05-30T09:42:59.609Z,2.87
2019-05-30T09:45:28.184Z,2.70
2019-05-30T09:47:56.621Z,2.50
2019-05-30T09:50:25.148Z,3.23
2019-05-30T09:52:53.608Z,2.70
2019-05-30T09:55:22.427Z,2.30
2019-05-30T09:57:51.703Z,2.43
2019-05-30T10:00:22.086Z,2.87
2019-05-30T10:02:50.681Z,2.63
2019-05-30T10:05:24.325Z,2.47
2019-05-30T10:07:52.850Z,3.00
2019-05-30T10:10:21.953Z,2.93
2019-05-30T10:12:50.467Z,2.80
2019-05-30T10:15:19.481Z,2.93
2019-05-30T10:17:49.529Z,2.40
2019-05-30T10:20:18.808Z,2.53
2019-05-30T10:22:49.005Z,2.10
2019-05-30T10:25:17.823Z,2.67
2019-05-30T10:27:48.027Z,2.47
2019-05-30T10:30:18.498Z,2.60
2019-05-30T10:32:48.565Z,2.70
2019-05-30T10:35:17.258Z,2.50
2019-05-30T10:37:47.094Z,2.90
2019-05-30T10:40:16.512Z,2.80
2019-05-30T10:42:46.202Z,3.33
2019-05-30T10:45:15.838Z,2.83
2019-05-30T10:47:45.840Z,3.40
2019-05-30T10:50:14.946Z,3.20
2019-05-30T10:52:43.514Z,2.93
2019-05-30T10:55:13.609Z,2.87
2019-05-30T10:57:42.068Z,3.17
2019-05-30T11:00:13.594Z,3.70
2019-05-30T11:02:42.034Z,3.73
2019-05-30T11:05:11.208Z,4.13
2019-05-30T11:08:02.067Z,3.50
2019-05-30T11:10:36.120Z,3.20
2019-05-30T11:13:07.305Z,4.03
2019-05-30T11:15:35.753Z,3.97
2019-05-30T11:18:04.548Z,4.47
2019-05-30T11:20:32.985Z,3.33
2019-05-30T11:23:01.437Z,3.60
2019-05-30T11:25:29.959Z,3.37
2019-05-30T11:27:58.909Z,3.30
2019-05-30T11:30:27.631Z,3.03
2019-05-30T11:32:57.285Z,2.90
2019-05-30T11:35:25.865Z,3.73
2019-05-30T11:37:55.207Z,3.23
2019-05-30T11:40:24.333Z,2.73
2019-05-30T11:42:53.381Z,3.20
2019-05-30T11:45:23.253Z,3.33
2019-05-30T11:47:51.709Z,2.53
2019-05-30T11:50:20.555Z,2.87
2019-05-30T11:52:49.841Z,3.37
2019-05-30T11:55:18.456Z,3.50
2019-05-30T11:57:46.911Z,3.07
2019-05-30T12:00:16.044Z,2.90
2019-05-30T12:02:44.509Z,3.50
2019-05-30T12:05:13.797Z,2.83
2019-05-30T12:07:42.308Z,2.90
2019-05-30T12:10:11.200Z,3.10
2019-05-30T12:12:39.682Z,2.87
2019-05-30T12:15:09.434Z,3.03
2019-05-30T12:17:37.892Z,3.10
2019-05-30T12:20:07.894Z,3.43
2019-05-30T12:22:36.503Z,2.90
2019-05-30T12:25:08.511Z,2.67
2019-05-30T12:27:36.986Z,2.70
2019-05-30T12:30:09.266Z,2.67
2019-05-30T12:32:37.718Z,2.70
2019-05-30T12:35:09.825Z,3.10
2019-05-30T12:37:53.640Z,2.67
2019-05-30T12:40:10.505Z,3.33
2019-05-30T12:42:39.006Z,2.70
2019-05-30T12:45:10.967Z,2.90
2019-05-30T12:47:39.407Z,4.07
2019-05-30T12:50:12.435Z,3.47
2019-05-30T12:52:40.897Z,3.10
2019-05-30T12:55:10.855Z,3.07
2019-05-30T12:57:39.369Z,2.90
2019-05-30T13:00:18.446Z,3.03
2019-05-30T13:02:40.197Z,2.70
2019-05-30T13:05:08.990Z,3.17
2019-05-30T13:07:37.516Z,3.53
2019-05-30T13:10:09.837Z,3.50
2019-05-30T13:12:38.410Z,3.50
2019-05-30T13:15:07.610Z,3.90
2019-05-30T13:17:36.055Z,4.30
2019-05-30T13:20:07.853Z,4.43
2019-05-30T13:22:36.544Z,4.87
2019-05-30T13:25:09.419Z,4.50
2019-05-30T13:27:37.924Z,4.50
2019-05-30T13:30:09.018Z,3.97
2019-05-30T13:32:37.534Z,4.83
2019-05-30T13:35:09.331Z,4.20
2019-05-30T13:37:37.773Z,4.80
2019-05-30T13:40:23.714Z,4.40
2019-05-30T13:42:39.112Z,4.50
2019-05-30T13:45:09.843Z,4.00
2019-05-30T13:47:38.838Z,5.23
2019-05-30T13:50:13.008Z,4.50
2019-05-30T13:52:39.726Z,4.60
2019-05-30T13:55:10.274Z,4.97
2019-05-30T13:57:38.863Z,5.80
2019-05-30T14:00:08.415Z,5.27
2019-05-30T14:02:36.864Z,5.10
2019-05-30T14:05:08.196Z,5.43
2019-05-30T14:07:36.829Z,5.57
2019-05-30T14:10:10.723Z,6.03
2019-05-30T14:12:39.342Z,5.90
2019-05-30T14:15:11.093Z,6.53
2019-05-30T14:17:39.258Z,6.30
2019-05-30T14:20:09.477Z,6.50
2019-05-30T14:22:38.003Z,6.27
2019-05-30T14:25:11.588Z,5.77
2019-05-30T14:27:40.159Z,5.97
2019-05-30T14:30:10.858Z,5.47
2019-05-30T14:32:39.559Z,5.77
2019-05-30T14:35:08.670Z,5.97
2019-05-30T14:37:37.199Z,5.50
2019-05-30T14:40:11.050Z,5.70
2019-05-30T14:42:39.729Z,4.63
2019-05-30T14:45:10.406Z,5.30
2019-05-30T14:47:39.285Z,5.70
2019-05-30T14:50:10.576Z,6.13
2019-05-30T14:52:39.461Z,7.03
2019-05-30T14:55:09.074Z,7.10
2019-05-30T14:57:37.879Z,5.60
2019-05-30T15:00:09.260Z,6.03
2019-05-30T15:02:38.191Z,8.20
2019-05-30T15:05:07.428Z,6.10
2019-05-30T15:07:36.136Z,6.97
2019-05-30T15:10:08.786Z,6.87
2019-05-30T15:12:37.425Z,7.07
2019-05-30T15:15:09.055Z,7.60
2019-05-30T15:17:37.616Z,8.43
2019-05-30T15:20:10.682Z,7.60
2019-05-30T15:22:39.915Z,6.77
2019-05-30T15:25:10.062Z,6.90
2019-05-30T15:27:38.905Z,7.53
2019-05-30T15:30:12.681Z,7.50
2019-05-30T15:32:41.388Z,7.40
2019-05-30T15:35:11.013Z,8.60
2019-05-30T15:37:40.955Z,7.70
2019-05-30T15:40:10.941Z,7.83
2019-05-30T15:42:39.527Z,8.00
2019-05-30T15:45:09.922Z,7.27
2019-05-30T15:47:38.636Z,7.73
2019-05-30T15:50:08.297Z,7.67
2019-05-30T15:52:37.401Z,8.23
2019-05-30T15:55:07.484Z,7.13
2019-05-30T15:57:36.713Z,7.60
2019-05-30T16:00:10.019Z,7.20
2019-05-30T16:02:38.717Z,7.43
2019-05-30T16:05:10.319Z,8.70
2019-05-30T16:07:39.072Z,7.03
2019-05-30T16:10:09.053Z,6.87
2019-05-30T16:12:37.538Z,6.70
2019-05-30T16:15:08.102Z,7.37
2019-05-30T16:17:36.603Z,7.53
2019-05-30T16:20:06.889Z,7.03
2019-05-30T16:22:35.444Z,7.83
2019-05-30T16:25:07.572Z,7.50
2019-05-30T16:27:36.079Z,7.70
2019-05-30T16:30:07.050Z,7.67
2019-05-30T16:32:35.706Z,7.17
2019-05-30T16:35:05.563Z,7.80
2019-05-30T16:37:34.030Z,7.73
2019-05-30T16:40:06.247Z,7.37
2019-05-30T16:42:32.940Z,7.47
2019-05-30T16:45:01.443Z,6.80
2019-05-30T16:47:29.923Z,7.30
2019-05-30T16:49:58.378Z,6.90
2019-05-30T16:52:27.316Z,7.00
2019-05-30T16:54:55.859Z,7.03
2019-05-30T16:57:24.296Z,7.33
2019-05-30T16:59:52.734Z,6.90
2019-05-30T17:02:21.182Z,6.60
2019-05-30T17:04:49.645Z,7.57
2019-05-30T17:07:19.115Z,7.40
2019-05-30T17:09:47.674Z,7.77
2019-05-30T17:12:17.331Z,7.57
2019-05-30T17:14:46.031Z,7.33
2019-05-30T17:17:14.466Z,7.67
2019-05-30T17:19:42.917Z,7.80
2019-05-30T17:22:11.363Z,7.47
2019-05-30T17:24:39.813Z,7.67
2019-05-30T17:27:08.338Z,8.20
2019-05-30T17:29:36.798Z,7.60
2019-05-30T17:32:05.258Z,7.40
2019-05-30T17:34:33.709Z,7.87
2019-05-30T17:37:02.150Z,8.17
2019-05-30T17:39:30.744Z,8.07
2019-05-30T17:41:59.194Z,7.53
2019-05-30T17:44:27.639Z,7.97
2019-05-30T17:46:56.161Z,8.33
2019-05-30T17:49:25.747Z,7.57
2019-05-30T17:51:54.421Z,7.50
2019-05-30T17:54:23.833Z,7.43
2019-05-30T17:56:52.401Z,8.17
2019-05-30T17:59:22.275Z,7.83
2019-05-30T18:01:50.789Z,7.93
2019-05-30T18:04:20.338Z,8.67
2019-05-30T18:06:48.908Z,8.03
2019-05-30T18:09:17.338Z,8.83
2019-05-30T18:11:45.834Z,8.70
2019-05-30T18:14:14.283Z,7.20
2019-05-30T18:16:42.741Z,8.20
2019-05-30T18:19:11.415Z,8.43
2019-05-30T18:21:41.579Z,8.23
2019-05-30T18:24:10.021Z,9.93
2019-05-30T18:26:38.515Z,8.50
2019-05-30T18:29:06.999Z,9.37
2019-05-30T18:31:35.465Z,9.67
2019-05-30T18:34:05.404Z,10.00
2019-05-30T18:36:33.919Z,9.90
2019-05-30T18:39:02.422Z,10.33
2019-05-30T18:41:30.954Z,10.17
2019-05-30T18:43:59.432Z,10.47
2019-05-30T18:46:29.070Z,10.87
2019-05-30T18:48:57.839Z,10.63
2019-05-30T18:51:26.370Z,10.67
2019-05-30T18:53:54.813Z,11.13
2019-05-30T18:56:29.006Z,12.13
2019-05-30T18:58:57.454Z,11.03
2019-05-30T19:01:27.277Z,11.87
2019-05-30T19:03:56.031Z,11.73
2019-05-30T19:06:26.053Z,12.30
2019-05-30T19:08:54.636Z,12.53
2019-05-30T19:11:29.097Z,13.87
2019-05-30T19:13:53.313Z,12.57
2019-05-30T19:16:21.914Z,13.00
2019-05-30T19:18:50.416Z,12.80
2019-05-30T19:21:18.857Z,13.53
2019-05-30T19:23:47.358Z,12.57
2019-05-30T19:26:15.807Z,13.40
2019-05-30T19:28:44.297Z,13.57
2019-05-30T19:31:15.573Z,14.47
2019-05-30T19:33:44.203Z,14.43
2019-05-30T19:36:12.979Z,15.17
2019-05-30T19:38:41.628Z,15.13
2019-05-30T19:41:10.061Z,16.80
2019-05-30T19:43:38.514Z,15.87
2019-05-30T19:46:07.038Z,15.20
2019-05-30T19:48:36.449Z,17.47
2019-05-30T19:51:05.261Z,17.00
2019-05-30T19:53:34.711Z,16.57
2019-05-30T19:56:03.480Z,15.40
2019-05-30T19:58:31.968Z,16.10
2019-05-30T20:01:00.459Z,17.07
2019-05-30T20:03:37.504Z,17.30
2019-05-30T20:05:59.340Z,17.57
2019-05-30T20:08:43.969Z,18.87
2019-05-30T20:10:57.956Z,18.90
2019-05-30T20:13:28.530Z,18.00
2019-05-30T20:15:57.040Z,18.77
2019-05-30T20:18:25.712Z,20.30
2019-05-30T20:20:59.777Z,19.50
2019-05-30T20:23:28.354Z,19.07
2019-05-30T20:25:56.876Z,18.40
2019-05-30T20:28:25.470Z,19.47
2019-05-30T20:30:56.881Z,19.93
2019-05-30T20:33:26.105Z,20.20
2019-05-30T20:35:54.556Z,20.37
2019-05-30T20:38:23.072Z,21.40
2019-05-30T20:40:54.274Z,20.53
2019-05-30T20:43:26.099Z,19.93
2019-05-30T20:45:56.129Z,19.33
2019-05-30T20:48:24.652Z,17.83
2019-05-30T20:50:53.100Z,18.30
2019-05-30T20:53:21.581Z,19.70
2019-05-30T20:55:52.750Z,19.47
2019-05-30T20:58:21.224Z,19.60
2019-05-30T21:00:52.582Z,19.73
2019-05-30T21:03:21.028Z,20.50
2019-05-30T21:05:50.597Z,19.23
2019-05-30T21:08:19.045Z,22.27
2019-05-30T21:10:48.824Z,21.27
2019-05-30T21:13:18.806Z,20.80
2019-05-30T21:15:48.387Z,20.37
2019-05-30T21:18:20.858Z,20.93
2019-05-30T21:20:49.484Z,18.73
2019-05-30T21:23:18.196Z,21.17
2019-05-30T21:25:47.320Z,21.00
2019-05-30T21:28:16.130Z,21.47
2019-05-30T21:30:45.398Z,22.90
2019-05-30T21:33:13.975Z,21.30
2019-05-30T21:35:48.626Z,20.60
2019-05-30T21:38:17.522Z,21.43
2019-05-30T21:40:46.532Z,24.07
2019-05-30T21:43:16.643Z,24.00
2019-05-30T21:45:51.210Z,23.83
2019-05-30T21:48:19.670Z,23.73
2019-05-30T21:50:49.108Z,24.57
2019-05-30T21:53:18.319Z,25.17
2019-05-30T21:55:47.950Z,27.30
2019-05-30T21:58:16.647Z,26.40
2019-05-30T22:00:51.149Z,25.57
2019-05-30T22:03:19.683Z,27.10
2019-05-30T22:05:48.622Z,25.37
2019-05-30T22:08:18.255Z,26.47
2019-05-30T22:10:47.652Z,25.37
2019-05-30T22:13:16.246Z,27.83
2019-05-30T22:15:45.988Z,28.00
2019-05-30T22:18:14.916Z,28.80
2019-05-30T22:20:43.837Z,27.17
2019-05-30T22:23:14.097Z,28.00
2019-05-30T22:25:42.576Z,27.40
2019-05-30T22:28:11.046Z,27.67
2019-05-30T22:30:39.503Z,29.57
2019-05-30T22:33:07.978Z,29.27
2019-05-30T22:35:36.441Z,29.17
2019-05-30T22:38:04.881Z,27.63
2019-05-30T22:40:33.351Z,27.23
2019-05-30T22:43:01.810Z,27.30
2019-05-30T22:45:30.309Z,25.50
2019-05-30T22:47:58.817Z,26.57
2019-05-30T22:50:27.272Z,25.97
2019-05-30T22:52:55.722Z,25.50
2019-05-30T22:55:24.248Z,25.63
2019-05-30T22:57:52.724Z,24.97
2019-05-30T23:00:22.862Z,25.87
2019-05-30T23:02:51.936Z,24.97
2019-05-30T23:05:20.528Z,23.83
2019-05-30T23:07:49.808Z,23.37
2019-05-30T23:10:18.315Z,22.37
2019-05-30T23:12:47.718Z,22.50
2019-05-30T23:15:16.377Z,23.67
2019-05-30T23:17:46.051Z,23.27
2019-05-30T23:20:14.956Z,22.17
2019-05-30T23:22:43.417Z,23.57
2019-05-30T23:25:12.090Z,22.27
2019-05-30T23:27:40.562Z,21.37
2019-05-30T23:30:09.164Z,20.70
2019-05-30T23:32:37.608Z,20.27
2019-05-30T23:35:06.762Z,20.33
2019-05-30T23:37:35.219Z,19.73
2019-05-30T23:40:04.724Z,20.23
2019-05-30T23:42:33.170Z,20.40
2019-05-30T23:45:01.639Z,19.63
2019-05-30T23:47:30.140Z,19.47
2019-05-30T23:49:58.751Z,19.10
2019-05-30T23:52:27.218Z,18.77
2019-05-30T23:54:56.265Z,19.00
2019-05-30T23:57:24.994Z,19.07
2019-05-30T23:59:54.646Z,18.57
